Flight Track Log - Related Links

Times and Time Zones

All times are in EDT time to prevent confusion due to time zone crossing. See the EJA982 flight status page for this flight to view local times or setup timezone preferences in your user account.

Time Position Orientation Groundspeed Altitude Reporting Facility
EDT Latitude Longitude Course Direction KTS MPH feet Rate Location/Type
Fri 02:36:09 PM 33.3000 -111.6500 140° Southeast 153 176 2,000  Level Phoenix TRACON
Fri 02:37:03 PM 33.2667 -111.6167 140° Southeast 192 221 4,000 2,000 Climbing Phoenix TRACON
Fri 02:38:03 PM 33.2500 -111.5500 107° East 267 307 5,800 2,850 Climbing Phoenix TRACON
Fri 02:39:03 PM 33.3167 -111.5500 360° North 291 335 9,700 3,950 Climbing Phoenix TRACON
Fri 02:40:03 PM 33.3833 -111.6167 320° Northwest 315 362 13,700 3,818 Climbing Phoenix TRACON
Fri 02:41:04 PM 33.4333 -111.7167 301° West 341 392 17,400 2,696 Climbing Phoenix TRACON
Fri 02:42:21 PM 33.4867 -111.8286 300° West 352 405 19,900 1,597 Climbing Albuquerque Center
Fri 02:43:23 PM 33.5411 -111.9469 299° West 403 464 21,100 1,742 Climbing Albuquerque Center
Fri 02:44:25 PM 33.6242 -112.0786 307° West 416 479 23,500 2,129 Climbing Albuquerque Center
Fri 02:45:27 PM 33.7231 -112.1467 330° Northwest 408 470 25,500 2,000 Climbing Albuquerque Center
Fri 02:46:28 PM 33.8247 -112.2094 333° Northwest 408 470 27,600 2,000 Climbing Albuquerque Center
Fri 02:47:30 PM 33.9269 -112.2728 333° Northwest 410 472 29,600 1,790 Climbing Albuquerque Center
Fri 02:48:32 PM 34.0311 -112.3358 333° Northwest 415 478 31,300 1,597 Climbing Albuquerque Center
Fri 02:49:34 PM 34.1378 -112.4019 333° Northwest 426 490 32,900 1,500 Climbing Albuquerque Center
Fri 02:50:36 PM 34.2481 -112.4694 333° Northwest 439 505 34,400 1,984 Climbing Albuquerque Center
Fri 02:51:38 PM 34.3775 -112.5500 333° Northwest 436 502 37,000 1,258 Climbing Albuquerque Center
Fri 02:52:40 PM 34.4878 -112.6333 328° Northwest 455 524 37,000  Level Albuquerque Center
Fri 02:53:42 PM 34.5600 -112.7814 301° West 493 567 37,000 49 Level Albuquerque Center
Fri 02:54:43 PM 34.6303 -112.9383 299° West 514 592 37,100 488 Climbing Albuquerque Center
Fri 02:55:45 PM 34.7019 -113.0978 299° West 527 606 38,000 435 Climbing Albuquerque Center
Fri 02:56:47 PM 34.7731 -113.2567 299° West 532 612 38,000  Level Albuquerque Center
Fri 02:57:49 PM 34.8411 -113.4142 298° West 527 606 38,000  Level Albuquerque Center
Fri 02:59:02 PM 34.9328 -113.5947 302° West 516 594 38,000  Level Los Angeles Center
Fri 03:00:04 PM 35.0319 -113.7536 307° West 494 568 38,000  Level Los Angeles Center
Fri 03:01:06 PM 35.1147 -113.8897 307° West 497 572 38,000  Level Los Angeles Center
Fri 03:02:08 PM 35.1972 -114.0256 307° West 506 582 38,000  Level Los Angeles Center
Fri 03:03:10 PM 35.2792 -114.1614 306° West 500 575 38,000  Level Los Angeles Center
Fri 03:04:12 PM 35.3636 -114.2953 308° West 496 571 38,000  Level Los Angeles Center
Fri 03:05:14 PM 35.4606 -114.4553 307° West 489 563 38,000  Level Los Angeles Center
Fri 03:06:17 PM 35.5411 -114.5897 306° West 487 560 38,000  Level Los Angeles Center
Fri 03:07:19 PM 35.6222 -114.7236 307° West 488 562 38,000  Level Los Angeles Center
Fri 03:08:21 PM 35.7028 -114.8581 306° West 488 562 38,000  Level Los Angeles Center
Fri 03:09:23 PM 35.7828 -114.9906 307° West 485 558 38,000  Level Los Angeles Center
Fri 03:10:25 PM 35.8783 -115.1525 306° West 485 558 38,000  Level Los Angeles Center
Fri 03:11:27 PM 35.9575 -115.2878 306° West 485 558 38,000  Level Los Angeles Center
Fri 03:12:29 PM 36.0364 -115.4222 306° West 483 556 38,000  Level Los Angeles Center
Fri 03:13:31 PM 36.1183 -115.5597 306° West 488 562 38,000  Level Los Angeles Center
Fri 03:14:34 PM 36.1978 -115.6997 305° West 487 560 38,000  Level Los Angeles Center
Fri 03:15:36 PM 36.2781 -115.8414 305° West 493 567 38,000  Level Los Angeles Center
Fri 03:16:39 PM 36.3422 -116.0103 295° West 481 554 38,000  Level Los Angeles Center
Fri 03:17:40 PM 36.3769 -116.1714 285° West 480 552 38,000  Level Los Angeles Center
Fri 03:18:42 PM 36.4139 -116.3364 286° West 481 554 38,000  Level Los Angeles Center
Fri 03:19:44 PM 36.4478 -116.4975 285° West 483 556 38,000  Level Los Angeles Center
Fri 03:20:46 PM 36.4825 -116.6556 285° West 479 551 38,000  Level Los Angeles Center
Fri 03:21:49 PM 36.5164 -116.8164 285° West 482 555 38,000  Level Los Angeles Center
Fri 03:22:51 PM 36.5514 -116.9761 285° West 481 554 38,000  Level Los Angeles Center
Fri 03:23:53 PM 36.5839 -117.1339 284° West 478 550 38,000  Level Los Angeles Center
Fri 03:24:55 PM 36.6247 -117.3253 285° West 478 550 38,000  Level Los Angeles Center
Fri 03:25:57 PM 36.6575 -117.4839 284° West 478 550 38,000  Level Los Angeles Center
Fri 03:26:59 PM 36.6903 -117.6433 284° West 477 549 38,000  Level Los Angeles Center
Fri 03:28:01 PM 36.7228 -117.8025 284° West 477 549 38,000  Level Los Angeles Center
Fri 03:28:58 PM 36.7553 -117.9681 284° West 473 544 38,000  Level Oakland Center
Fri 03:30:06 PM 36.7953 -118.1594 285° West 474 545 38,000  Level Los Angeles Center
Fri 03:31:08 PM 36.8269 -118.3189 284° West 474 545 38,000  Level Los Angeles Center
Fri 03:32:04 PM 36.8494 -118.4422 283° West 470 541 38,000  Level Oakland Center
Fri 03:33:05 PM 36.8825 -118.6025 285° West 473 544 38,000  Level Oakland Center
Fri 03:34:07 PM 36.9192 -118.7931 284° West 473 544 38,000 -48 Level Oakland Center
Fri 03:35:09 PM 36.9497 -118.9489 284° West 468 539 37,900 -387 Descending Oakland Center
Fri 03:36:11 PM 36.9792 -119.1058 283° West 466 536 37,200 -1,355 Descending Oakland Center
Fri 03:37:13 PM 37.0081 -119.2550 284° West 449 517 35,100 -1,561 Descending Oakland Center
Fri 03:38:14 PM 37.0372 -119.4078 283° West 452 520 34,000 -683 Descending Oakland Center
Fri 03:39:16 PM 37.0681 -119.5711 283° West 479 551 33,700 -290 Descending Oakland Center
Fri 03:40:18 PM 37.1042 -119.7633 283° West 475 547 33,400 -968 Descending Oakland Center
Fri 03:41:20 PM 37.1286 -119.8969 283° West 463 533 31,700 -1,854 Descending Oakland Center
Fri 03:42:21 PM 37.1631 -120.0800 283° West 453 521 29,600 -1,902 Descending Oakland Center
Fri 03:43:23 PM 37.1892 -120.2283 283° West 442 509 27,800 -1,742 Descending Oakland Center
Fri 03:44:25 PM 37.2142 -120.3767 282° West 437 503 26,000 -1,673 Descending Oakland Center
Fri 03:45:07 PM 37.2000 -120.4667 259° West 491 565 24,900 -1,706 Descending Northern Cal TRACON
Fri 03:46:07 PM 37.1667 -120.6167 254° West 414 476 23,100 -1,800 Descending Northern Cal TRACON
Fri 03:47:07 PM 37.1500 -120.7500 261° West 391 450 21,300 -1,850 Descending Northern Cal TRACON
Fri 03:48:07 PM 37.1167 -120.8833 253° West 383 441 19,400 -1,900 Descending Northern Cal TRACON
Fri 03:49:07 PM 37.0833 -121.0000 250° West 378 435 17,500 -1,650 Descending Northern Cal TRACON
Fri 03:50:07 PM 37.0667 -121.1167 260° West 368 423 16,100 -1,450 Descending Northern Cal TRACON
Fri 03:51:07 PM 37.0333 -121.2500 253° West 357 411 14,600 -1,533 Descending Northern Cal TRACON
Fri 03:51:37 PM 37.0228 -121.2981 255° West 361 415 13,800 -1,435 Descending Oakland Center
Fri 03:52:39 PM 36.9961 -121.4158 254° West 355 409 12,400 -1,500 Descending Oakland Center
Fri 03:53:41 PM 37.0117 -121.5286 280° West 343 395 10,700 -1,902 Descending Oakland Center
Fri 03:54:42 PM 37.0658 -121.6072 311° West 308 354 8,500 -1,756 Descending Oakland Center
Fri 03:55:44 PM 37.1242 -121.6658 321° Northwest 260 299 7,100 -1,500 Descending Oakland Center
Fri 03:56:46 PM 37.1731 -121.7206 318° Northwest 236 272 5,400 -1,659 Descending Oakland Center
Fri 03:57:47 PM 37.2256 -121.7831 317° Northwest 227 261 3,700 -1,415 Descending Oakland Center
Fri 03:58:49 PM 37.2656 -121.8267 319° Northwest 208 239 2,500 -720 Descending Oakland Center
Fri 03:59:52 PM 37.3011 -121.8631 321° Northwest 182 209 2,200 -823 Descending Oakland Center
Fri 04:00:53 PM 37.3317 -121.8978 318° Northwest 164 189 800 -1,377 Descending Oakland Center
Fri 04:03:00 PM 37.3500 -121.9167 North  Level FlightAware Approximate
Fri 04:10:00 PM 37.3627 -121.9291 North  Level Estimated

Login

Don't have an account? Register now (free) for customized features, flight alerts, and more!